Pacolet, South Carolina
Current Conditions -  °F | °C
As of 8:35 AM on Sunday 23 Nov 2014 (Local Time) from KSPA Reporting Station
Drizzle Drizzle  
Wind Chill: 39°   Ceiling: 800
Heat Index: 43°   Visibility: 10mi
Dew Point: 43°   Wind: 6mph
Humidity: 100%   Direction: 30°NNE
Pressure: 30.18"   Gusts: NA
Location:  34.9°N, 81.76°W
Report Text: KSPA 231335Z AUTO 03005KT 10SM -DZ OVC008 06/06 A3018 RMK AO2 P0001
Loading
Personal Weather Stations






























Interactive Weather Map New forecast layout! Learn more

10-Day Weather Forecast

Advertisements
Track Severe Weather on mobile